createdAt,value
2018-05-15T05:14:51.174Z,102210.84
2018-05-15T05:17:17.353Z,102214.45
2018-05-15T05:19:43.754Z,102210.95
2018-05-15T05:22:10.502Z,102212.01
2018-05-15T05:24:36.693Z,102216.64
2018-05-15T05:27:03.077Z,102216.18
2018-05-15T05:29:29.615Z,102216.16
2018-05-15T05:31:55.847Z,102217.94
2018-05-15T05:34:22.240Z,102213.91
2018-05-15T05:36:48.567Z,102211.40
2018-05-15T05:39:14.845Z,102205.84
2018-05-15T05:41:41.162Z,102209.22
2018-05-15T05:44:07.524Z,102217.11
2018-05-15T05:46:33.759Z,102211.36
2018-05-15T05:49:00.033Z,102214.25
2018-05-15T05:51:26.402Z,102212.62
2018-05-15T05:53:52.599Z,102209.30
2018-05-15T05:56:19.002Z,102214.06
2018-05-15T05:58:45.581Z,102211.98
2018-05-15T06:01:11.811Z,102213.09
2018-05-15T06:03:38.196Z,102219.54
2018-05-15T06:06:04.648Z,102213.92
2018-05-15T06:08:30.904Z,102215.03
2018-05-15T06:10:57.434Z,102212.84
2018-05-15T06:13:24.103Z,102212.70
2018-05-15T06:15:50.343Z,102216.06
2018-05-15T06:18:16.875Z,102213.72
2018-05-15T06:20:43.471Z,102217.12
2018-05-15T06:23:09.667Z,102212.47
2018-05-15T06:25:36.258Z,102213.70
2018-05-15T06:28:02.691Z,102216.76
2018-05-15T06:30:29.268Z,102210.19
2018-05-15T06:32:55.629Z,102214.59
2018-05-15T06:35:22.003Z,102179.80
2018-05-15T06:37:48.197Z,102220.83
2018-05-15T06:40:14.545Z,102213.81
2018-05-15T06:42:40.890Z,102221.80
2018-05-15T06:45:07.097Z,102209.33
2018-05-15T06:47:33.489Z,102220.70
2018-05-15T06:49:59.821Z,102222.99
2018-05-15T06:52:26.133Z,102217.18
2018-05-15T06:54:52.520Z,102218.06
2018-05-15T06:57:18.869Z,102210.45
2018-05-15T06:59:45.058Z,102212.69
2018-05-15T07:02:11.619Z,102215.17
2018-05-15T07:04:38.281Z,102219.63
2018-05-15T07:07:04.486Z,102225.09
2018-05-15T07:09:30.855Z,102217.95
2018-05-15T07:11:57.221Z,102220.74
2018-05-15T07:14:23.440Z,102225.76
2018-05-15T07:16:49.789Z,102218.54
2018-05-15T07:19:16.227Z,102221.41
2018-05-15T07:21:42.459Z,102218.33
2018-05-15T07:24:08.694Z,102212.34
2018-05-15T07:26:35.027Z,102215.72
2018-05-15T07:29:01.265Z,102218.58
2018-05-15T07:31:27.866Z,102221.41
2018-05-15T07:33:54.290Z,102224.62
2018-05-15T07:36:20.523Z,102227.41
2018-05-15T07:38:46.928Z,102229.45
2018-05-15T07:41:13.304Z,102214.44
2018-05-15T07:43:39.494Z,102219.13
2018-05-15T07:46:05.938Z,102230.29
2018-05-15T07:48:32.440Z,102224.44
2018-05-15T07:50:58.641Z,102230.81
2018-05-15T07:53:25.065Z,102225.69
2018-05-15T07:55:51.906Z,102226.87
2018-05-15T07:58:18.115Z,102229.22
2018-05-15T08:00:44.661Z,102231.33
2018-05-15T08:03:11.112Z,102235.63
2018-05-15T08:05:37.283Z,102235.94
2018-05-15T08:08:03.646Z,102232.54
2018-05-15T08:10:29.997Z,102231.05
2018-05-15T08:12:56.219Z,102233.21
2018-05-15T08:15:22.730Z,102230.58
2018-05-15T08:17:49.496Z,102239.45
2018-05-15T08:20:15.734Z,102234.25
2018-05-15T08:22:42.222Z,102240.73
2018-05-15T08:25:08.618Z,102229.61
2018-05-15T08:27:34.857Z,102229.28
2018-05-15T08:30:01.440Z,102231.61
2018-05-15T08:32:28.166Z,102229.44
2018-05-15T08:34:54.418Z,102232.77
2018-05-15T08:37:20.839Z,102236.90
2018-05-15T08:39:47.247Z,102224.28
2018-05-15T08:42:13.512Z,102226.05
2018-05-15T08:44:39.925Z,102228.36
2018-05-15T08:47:06.394Z,102227.41
2018-05-15T08:49:32.652Z,102225.22
2018-05-15T08:51:59.088Z,102220.75
2018-05-15T08:54:25.645Z,102223.38
2018-05-15T08:56:51.987Z,102217.11
2018-05-15T08:59:18.494Z,102222.20
2018-05-15T09:01:45.025Z,102225.26
2018-05-15T09:04:11.227Z,102219.72
2018-05-15T09:06:37.679Z,102232.75
2018-05-15T09:09:04.095Z,102234.06
2018-05-15T09:11:30.382Z,102230.28
2018-05-15T09:13:56.731Z,102230.75
2018-05-15T09:16:23.090Z,102224.62
2018-05-15T09:18:49.314Z,102235.76
2018-05-15T09:21:16.057Z,102230.21
2018-05-15T09:23:42.404Z,102230.98
2018-05-15T09:26:08.663Z,102231.95
2018-05-15T09:28:34.993Z,102220.67
2018-05-15T09:31:01.361Z,102222.78
2018-05-15T09:33:27.785Z,102218.52
2018-05-15T09:35:54.439Z,102218.80
2018-05-15T09:38:20.913Z,102214.06
2018-05-15T09:40:47.103Z,102208.08
2018-05-15T09:43:25.545Z,102208.05
2018-05-15T09:45:52.049Z,102207.66
2018-05-15T09:48:18.257Z,102192.20
2018-05-15T09:50:44.658Z,102191.95
2018-05-15T09:53:11.341Z,102195.51
2018-05-15T09:55:37.502Z,102187.28
2018-05-15T09:58:04.032Z,102195.67
2018-05-15T10:00:32.595Z,102192.25
2018-05-15T10:02:58.826Z,102186.73
2018-05-15T10:05:25.225Z,102177.58
2018-05-15T10:07:51.876Z,102184.92
2018-05-15T10:10:18.044Z,102185.64
2018-05-15T10:12:44.528Z,102184.21
2018-05-15T10:15:10.979Z,102179.00
2018-05-15T10:17:37.217Z,102175.33
2018-05-15T10:20:03.769Z,102173.08
2018-05-15T10:22:30.065Z,102170.25
2018-05-15T10:24:56.286Z,102162.64
2018-05-15T10:27:22.796Z,102167.84
2018-05-15T10:29:49.425Z,102168.80
2018-05-15T10:32:15.603Z,102171.71
2018-05-15T10:34:42.084Z,102159.42
2018-05-15T10:37:08.467Z,102163.78
2018-05-15T10:39:34.680Z,102160.86
2018-05-15T10:42:01.429Z,102160.81
2018-05-15T10:44:27.793Z,102162.53
2018-05-15T10:46:53.954Z,102160.34
2018-05-15T10:49:20.392Z,102163.44
2018-05-15T10:51:47.022Z,102165.50
2018-05-15T10:54:13.284Z,102159.37
2018-05-15T10:56:39.900Z,102160.45
2018-05-15T10:59:06.489Z,102154.86
2018-05-15T11:01:32.697Z,102158.60
2018-05-15T11:03:59.163Z,102151.05
2018-05-15T11:06:25.552Z,102153.55
2018-05-15T11:08:51.725Z,102140.34
2018-05-15T11:11:18.088Z,102139.23
2018-05-15T11:13:44.681Z,102135.58
2018-05-15T11:16:10.872Z,102139.92
2018-05-15T11:18:44.361Z,102133.84
2018-05-15T11:21:22.474Z,102134.13
2018-05-15T11:23:57.930Z,102133.86
2018-05-15T11:26:24.148Z,102131.36
2018-05-15T11:28:50.394Z,102129.16
2018-05-15T11:31:16.861Z,102129.38
2018-05-15T11:33:43.079Z,102124.19
2018-05-15T11:36:09.389Z,102126.79
2018-05-15T11:38:36.238Z,102119.95
2018-05-15T11:41:02.477Z,102119.83
2018-05-15T11:43:28.669Z,102110.25
2018-05-15T11:45:55.327Z,102115.13
2018-05-15T11:48:21.928Z,102123.64
2018-05-15T11:50:48.815Z,102115.59
2018-05-15T11:53:14.772Z,102106.97
2018-05-15T11:55:42.714Z,102109.07
2018-05-15T11:58:06.760Z,102105.13
2018-05-15T12:00:33.367Z,102106.69
2018-05-15T12:02:59.623Z,102112.77
2018-05-15T12:05:25.810Z,102089.82
2018-05-15T12:07:52.758Z,102110.00
2018-05-15T12:10:18.951Z,102114.78
2018-05-15T12:12:45.193Z,102124.23
2018-05-15T12:15:12.213Z,102125.95
2018-05-15T12:17:38.413Z,102127.64
2018-05-15T12:20:04.688Z,102119.62
2018-05-15T12:22:31.381Z,102115.75
2018-05-15T12:24:57.595Z,102116.12
2018-05-15T12:27:23.800Z,102112.43
2018-05-15T12:29:50.778Z,102114.80
2018-05-15T12:32:17.006Z,102114.30
2018-05-15T12:34:43.184Z,102110.17
2018-05-15T12:37:10.045Z,102114.30
2018-05-15T12:39:36.250Z,102116.64
2018-05-15T12:42:02.635Z,102115.83
2018-05-15T12:44:29.170Z,102110.83
2018-05-15T12:46:55.405Z,102103.73
2018-05-15T12:49:21.581Z,102104.92
2018-05-15T12:51:48.467Z,102098.63
2018-05-15T12:54:14.669Z,102102.00
2018-05-15T12:56:40.901Z,102098.34
2018-05-15T12:59:07.369Z,102096.42
2018-05-15T13:01:33.583Z,102098.23
2018-05-15T13:03:59.788Z,102096.66
2018-05-15T13:06:26.299Z,102092.20
2018-05-15T13:08:52.539Z,102090.03
2018-05-15T13:11:18.733Z,102086.81
2018-05-15T13:13:45.592Z,102083.81
2018-05-15T13:16:11.832Z,102086.97
2018-05-15T13:18:38.163Z,102091.14
2018-05-15T13:21:04.782Z,102088.97
2018-05-15T13:23:31.026Z,102078.19
2018-05-15T13:25:57.268Z,102082.41
2018-05-15T13:28:24.186Z,102084.97
2018-05-15T13:30:50.375Z,102079.34
2018-05-15T13:33:16.574Z,102086.52
2018-05-15T13:35:43.490Z,102081.27
2018-05-15T13:38:10.159Z,102081.74
2018-05-15T13:40:36.412Z,102084.16
2018-05-15T13:43:02.844Z,102071.55
2018-05-15T13:45:29.058Z,102079.83
2018-05-15T13:47:55.284Z,102080.95
2018-05-15T13:50:21.771Z,102082.70
2018-05-15T13:52:48.012Z,102075.34
2018-05-15T13:55:14.190Z,102078.07
2018-05-15T13:57:40.837Z,102079.03
2018-05-15T14:00:07.056Z,102075.23
2018-05-15T14:02:33.290Z,102076.19
2018-05-15T14:04:59.810Z,102075.47
2018-05-15T14:07:26.071Z,102071.94
2018-05-15T14:09:52.281Z,102072.91
2018-05-15T14:12:19.226Z,102080.10
2018-05-15T14:14:45.410Z,102080.87
2018-05-15T14:17:11.620Z,102076.40
2018-05-15T14:19:38.344Z,102068.58
2018-05-15T14:22:04.544Z,102065.66
2018-05-15T14:24:30.733Z,102074.28
2018-05-15T14:26:57.646Z,102068.64
2018-05-15T14:29:23.834Z,102063.99
2018-05-15T14:31:50.054Z,102069.37
2018-05-15T14:34:16.890Z,102061.31
2018-05-15T14:36:43.113Z,102063.95
2018-05-15T14:39:09.471Z,102071.73
2018-05-15T14:41:48.178Z,102065.22
2018-05-15T14:44:14.601Z,102064.67
2018-05-15T14:46:40.805Z,102055.71
2018-05-15T14:49:07.472Z,102060.79
2018-05-15T14:51:34.046Z,102067.00
2018-05-15T14:54:06.128Z,102057.08
2018-05-15T14:56:32.693Z,102058.33
2018-05-15T14:58:59.135Z,102048.42
2018-05-15T15:01:25.345Z,102054.06
2018-05-15T15:03:52.018Z,102047.16
2018-05-15T15:06:18.393Z,102044.09
2018-05-15T15:08:44.607Z,102042.55
2018-05-15T15:11:10.955Z,102047.88
2018-05-15T15:13:37.368Z,102040.99
2018-05-15T15:16:03.608Z,102032.78
2018-05-15T15:18:30.266Z,102033.65
2018-05-15T15:20:56.664Z,102033.15
2018-05-15T15:23:22.891Z,102023.95
2018-05-15T15:25:49.326Z,102027.67
2018-05-15T15:28:15.783Z,102023.26
2018-05-15T15:30:41.995Z,102022.49
2018-05-15T15:33:08.412Z,102017.17
2018-05-15T15:35:34.892Z,102014.53
2018-05-15T15:38:01.188Z,102013.29
2018-05-15T15:40:27.738Z,102008.75
2018-05-15T15:42:54.147Z,102008.91
2018-05-15T15:45:20.373Z,102002.92
2018-05-15T15:47:46.858Z,102006.19
2018-05-15T15:50:13.272Z,102004.22
2018-05-15T15:52:39.498Z,102002.94
2018-05-15T15:55:05.955Z,102008.86
2018-05-15T15:57:32.349Z,102011.33
2018-05-15T15:59:58.641Z,102011.62
2018-05-15T16:02:25.273Z,102011.23
2018-05-15T16:04:51.534Z,102010.98
2018-05-15T16:07:17.743Z,102005.23
2018-05-15T16:09:44.174Z,102003.95
2018-05-15T16:12:10.483Z,102000.86
2018-05-15T16:14:36.568Z,101999.30
2018-05-15T16:17:02.740Z,102000.01
2018-05-15T16:19:28.953Z,101989.65
2018-05-15T16:21:55.167Z,101989.45
2018-05-15T16:24:21.527Z,101992.41
2018-05-15T16:26:47.974Z,101997.89
2018-05-15T16:29:14.171Z,101996.73
2018-05-15T16:31:40.795Z,101995.19
2018-05-15T16:34:07.246Z,101994.94
2018-05-15T16:36:33.448Z,102002.19
2018-05-15T16:39:00.070Z,101995.08
2018-05-15T16:41:26.754Z,101986.19
2018-05-15T16:43:52.958Z,101988.95
2018-05-15T16:46:19.420Z,101988.56
2018-05-15T16:48:46.073Z,101991.00
2018-05-15T16:51:12.337Z,101997.04
2018-05-15T16:53:38.682Z,101992.83
2018-05-15T16:56:05.185Z,101989.58
2018-05-15T16:58:31.388Z,101988.84
2018-05-15T17:00:57.726Z,101986.05
2018-05-15T17:03:24.174Z,101976.63
2018-05-15T17:05:50.358Z,101975.82
2018-05-15T17:08:16.977Z,101971.75
2018-05-15T17:10:43.401Z,101967.53
2018-05-15T17:13:09.704Z,101969.48
2018-05-15T17:15:36.163Z,101963.19
2018-05-15T17:18:02.634Z,101967.28
2018-05-15T17:20:28.862Z,101958.28
2018-05-15T17:22:55.351Z,101957.14
2018-05-15T17:25:22.005Z,101961.94
2018-05-15T17:27:48.190Z,101953.97
2018-05-15T17:30:14.546Z,101954.52
2018-05-15T17:32:41.103Z,101953.77
2018-05-15T17:35:07.265Z,101946.48
2018-05-15T17:37:33.885Z,101949.96
2018-05-15T17:40:00.375Z,101949.96
2018-05-15T17:42:26.956Z,101946.52
2018-05-15T17:44:53.465Z,101944.06
2018-05-15T17:47:19.990Z,101944.58
2018-05-15T17:49:46.170Z,101949.44
2018-05-15T17:52:12.552Z,101947.08
2018-05-15T17:54:38.816Z,101954.50
2018-05-15T17:57:05.000Z,101954.81
2018-05-15T17:59:31.440Z,101951.89
2018-05-15T18:01:57.889Z,101951.91
2018-05-15T18:04:24.077Z,101951.23
2018-05-15T18:06:50.403Z,101948.57
2018-05-15T18:09:16.789Z,101939.92
2018-05-15T18:11:42.996Z,101952.06
2018-05-15T18:14:09.355Z,101952.02
2018-05-15T18:16:35.997Z,101945.91
2018-05-15T18:19:02.230Z,101951.09
2018-05-15T18:21:28.867Z,101952.26
2018-05-15T18:23:55.371Z,101946.47
2018-05-15T18:26:21.572Z,101947.95
2018-05-15T18:28:48.043Z,101944.93
2018-05-15T18:31:14.561Z,101940.27
2018-05-15T18:33:40.772Z,101941.52
2018-05-15T18:36:07.158Z,101943.21
2018-05-15T18:38:33.499Z,101941.99
2018-05-15T18:40:59.678Z,101953.40
2018-05-15T18:43:26.206Z,101942.00
2018-05-15T18:45:52.452Z,101951.38
2018-05-15T18:48:18.630Z,101940.28
2018-05-15T18:50:45.214Z,101951.16
2018-05-15T18:53:11.604Z,101941.15
2018-05-15T18:55:37.790Z,101942.44
2018-05-15T18:58:04.325Z,101938.92
2018-05-15T19:00:30.623Z,101935.51
2018-05-15T19:02:56.833Z,101937.52
2018-05-15T19:05:23.389Z,101924.38
2018-05-15T19:07:49.687Z,101933.47
2018-05-15T19:10:15.908Z,101929.27
2018-05-15T19:12:42.401Z,101915.66
2018-05-15T19:15:08.706Z,101924.49
2018-05-15T19:17:34.949Z,101934.56
2018-05-15T19:20:01.487Z,101930.07
2018-05-15T19:22:27.909Z,101939.64
2018-05-15T19:24:54.172Z,101933.41
2018-05-15T19:27:20.558Z,101952.35
2018-05-15T19:29:47.092Z,101954.30
2018-05-15T19:32:16.278Z,101954.44
2018-05-15T19:35:01.246Z,101948.14
2018-05-15T19:37:27.950Z,101953.97
2018-05-15T19:39:56.517Z,101945.83
2018-05-15T19:42:22.741Z,101950.88
2018-05-15T19:44:49.642Z,101953.20
2018-05-15T19:47:16.191Z,101951.72
2018-05-15T19:49:42.374Z,101957.85
2018-05-15T19:52:08.766Z,101959.21
2018-05-15T19:54:35.231Z,101957.89
2018-05-15T19:57:01.523Z,101959.69
2018-05-15T19:59:27.913Z,101956.13
2018-05-15T20:01:54.366Z,101957.09
2018-05-15T20:04:20.567Z,101954.84
2018-05-15T20:06:47.050Z,101953.48
2018-05-15T20:09:13.428Z,101946.21
2018-05-15T20:11:39.644Z,101944.45
2018-05-15T20:14:06.155Z,101943.73
2018-05-15T20:16:32.507Z,101947.16
2018-05-15T20:18:58.704Z,101941.98
2018-05-15T20:21:25.321Z,101948.20
2018-05-15T20:23:51.737Z,101944.38
2018-05-15T20:26:17.954Z,101940.45
2018-05-15T20:28:44.243Z,101920.63
2018-05-15T20:31:10.775Z,101932.02
2018-05-15T20:33:36.985Z,101943.59
2018-05-15T20:36:03.505Z,101946.89
2018-05-15T20:38:29.806Z,101941.55
2018-05-15T20:40:56.035Z,101941.41
2018-05-15T20:43:22.409Z,101941.65
2018-05-15T20:45:49.083Z,101931.18
2018-05-15T20:48:15.374Z,101928.84
2018-05-15T20:50:41.986Z,101924.79
2018-05-15T20:53:08.485Z,101932.00
2018-05-15T20:55:34.725Z,101933.00
2018-05-15T20:58:01.239Z,101932.20
2018-05-15T21:00:27.581Z,101930.09
2018-05-15T21:02:53.814Z,101922.61
2018-05-15T21:05:20.338Z,101927.78
2018-05-15T21:07:46.936Z,101923.69
2018-05-15T21:10:13.123Z,101920.97
2018-05-15T21:12:39.439Z,101922.36
2018-05-15T21:15:05.863Z,101917.50
2018-05-15T21:17:32.054Z,101918.92
2018-05-15T21:19:58.454Z,101919.06
2018-05-15T21:22:24.815Z,101916.23
2018-05-15T21:24:51.014Z,101917.22
2018-05-15T21:27:17.451Z,101911.51
2018-05-15T21:29:44.016Z,101912.38
2018-05-15T21:32:10.189Z,101914.92
2018-05-15T21:34:36.574Z,101916.25
2018-05-15T21:37:03.221Z,101912.22
2018-05-15T21:39:29.462Z,101908.34
2018-05-15T21:41:56.079Z,101909.30
2018-05-15T21:44:22.431Z,101919.50
2018-05-15T21:46:49.041Z,101913.42
2018-05-15T21:49:15.450Z,101903.03
2018-05-15T21:51:41.813Z,101910.89
2018-05-15T21:54:08.013Z,101913.63
2018-05-15T21:56:34.399Z,101898.83
2018-05-15T21:59:00.923Z,101909.56
2018-05-15T22:01:27.179Z,101912.22
2018-05-15T22:03:53.588Z,101906.90
2018-05-15T22:06:19.907Z,101910.88
2018-05-15T22:08:46.084Z,101918.75
2018-05-15T22:11:13.115Z,101903.65
2018-05-15T22:13:51.690Z,101910.17
2018-05-15T22:16:35.990Z,101907.77
2018-05-15T22:19:20.648Z,101904.04
2018-05-15T22:22:04.978Z,101908.66
2018-05-15T22:24:37.347Z,101907.38
2018-05-15T22:27:03.569Z,101903.22
2018-05-15T22:29:29.760Z,101904.88
2018-05-15T22:31:56.470Z,101913.70
2018-05-15T22:34:22.700Z,101903.84
2018-05-15T22:36:48.931Z,101901.56
2018-05-15T22:39:15.319Z,101906.84
2018-05-15T22:41:41.620Z,101903.14
2018-05-15T22:44:07.824Z,101899.05
2018-05-15T22:46:34.554Z,101892.72
2018-05-15T22:49:00.943Z,101890.98
2018-05-15T22:51:27.142Z,101882.44
2018-05-15T22:53:53.937Z,101884.16
2018-05-15T22:56:20.177Z,101884.47
2018-05-15T22:58:46.413Z,101886.43
2018-05-15T23:01:12.814Z,101887.17
2018-05-15T23:03:39.066Z,101889.73
2018-05-15T23:06:05.331Z,101882.16
2018-05-15T23:08:32.246Z,101885.13
2018-05-15T23:10:58.472Z,101881.73
2018-05-15T23:13:24.723Z,101882.41
2018-05-15T23:15:51.658Z,101879.51
2018-05-15T23:18:17.870Z,101882.94
2018-05-15T23:20:44.112Z,101881.09
2018-05-15T23:23:10.770Z,101880.61
2018-05-15T23:25:37.018Z,101881.78
2018-05-15T23:28:03.260Z,101879.83
2018-05-15T23:30:30.414Z,101884.06
2018-05-15T23:32:57.907Z,101871.91
2018-05-15T23:35:24.144Z,101868.61
2018-05-15T23:37:51.057Z,101873.75
2018-05-15T23:40:17.291Z,101873.33
2018-05-15T23:42:43.466Z,101879.03
2018-05-15T23:45:10.137Z,101874.95
2018-05-15T23:47:36.384Z,101876.78
2018-05-15T23:50:02.921Z,101876.73
2018-05-15T23:52:29.565Z,101874.05
2018-05-15T23:54:55.793Z,101872.62
2018-05-15T23:57:21.974Z,101862.28
2018-05-15T23:59:48.715Z,101878.75
